sensor_id;sensor_type;location;lat;lon;timestamp;P1;durP1;ratioP1;P2;durP2;ratioP2
11222;SDS011;5668;52.012;8.724;2022-12-29T00:00:56;1.77;;;1.20;;
11222;SDS011;5668;52.012;8.724;2022-12-29T00:03:26;1.50;;;1.40;;
11222;SDS011;5668;52.012;8.724;2022-12-29T00:05:54;2.23;;;1.20;;
11222;SDS011;5668;52.012;8.724;2022-12-29T00:08:22;1.30;;;1.20;;
11222;SDS011;5668;52.012;8.724;2022-12-29T00:11:04;1.23;;;1.10;;
11222;SDS011;5668;52.012;8.724;2022-12-29T00:13:32;1.33;;;1.17;;
11222;SDS011;5668;52.012;8.724;2022-12-29T00:16:19;2.60;;;1.30;;
11222;SDS011;5668;52.012;8.724;2022-12-29T00:18:46;1.10;;;1.00;;
11222;SDS011;5668;52.012;8.724;2022-12-29T00:21:14;1.20;;;1.10;;
11222;SDS011;5668;52.012;8.724;2022-12-29T00:24:00;1.60;;;1.00;;
11222;SDS011;5668;52.012;8.724;2022-12-29T00:26:48;1.90;;;1.00;;
11222;SDS011;5668;52.012;8.724;2022-12-29T00:29:37;2.80;;;1.20;;
11222;SDS011;5668;52.012;8.724;2022-12-29T00:32:23;1.33;;;1.10;;
11222;SDS011;5668;52.012;8.724;2022-12-29T00:35:09;1.10;;;1.00;;
11222;SDS011;5668;52.012;8.724;2022-12-29T00:37:40;1.20;;;1.10;;
11222;SDS011;5668;52.012;8.724;2022-12-29T00:40:27;1.20;;;1.10;;
11222;SDS011;5668;52.012;8.724;2022-12-29T00:43:12;2.70;;;1.10;;
11222;SDS011;5668;52.012;8.724;2022-12-29T00:45:57;1.57;;;1.10;;
11222;SDS011;5668;52.012;8.724;2022-12-29T00:48:25;2.00;;;1.27;;
11222;SDS011;5668;52.012;8.724;2022-12-29T00:51:10;2.80;;;1.00;;
11222;SDS011;5668;52.012;8.724;2022-12-29T00:53:37;2.20;;;1.20;;
11222;SDS011;5668;52.012;8.724;2022-12-29T00:56:04;1.77;;;1.00;;
11222;SDS011;5668;52.012;8.724;2022-12-29T00:58:32;1.90;;;1.13;;
11222;SDS011;5668;52.012;8.724;2022-12-29T01:01:02;1.03;;;0.97;;
11222;SDS011;5668;52.012;8.724;2022-12-29T01:03:32;0.83;;;0.83;;
11222;SDS011;5668;52.012;8.724;2022-12-29T01:06:00;2.57;;;0.93;;
11222;SDS011;5668;52.012;8.724;2022-12-29T01:08:28;0.97;;;0.80;;
11222;SDS011;5668;52.012;8.724;2022-12-29T01:10:59;1.10;;;0.90;;
11222;SDS011;5668;52.012;8.724;2022-12-29T01:13:25;0.80;;;0.80;;
11222;SDS011;5668;52.012;8.724;2022-12-29T01:15:53;1.87;;;1.00;;
11222;SDS011;5668;52.012;8.724;2022-12-29T01:18:26;0.70;;;0.70;;
11222;SDS011;5668;52.012;8.724;2022-12-29T01:21:01;1.43;;;0.90;;
11222;SDS011;5668;52.012;8.724;2022-12-29T01:23:29;0.70;;;0.70;;
11222;SDS011;5668;52.012;8.724;2022-12-29T01:26:07;0.80;;;0.80;;
11222;SDS011;5668;52.012;8.724;2022-12-29T01:28:38;0.80;;;0.80;;
11222;SDS011;5668;52.012;8.724;2022-12-29T01:31:06;0.90;;;0.90;;
11222;SDS011;5668;52.012;8.724;2022-12-29T01:33:34;1.00;;;0.70;;
11222;SDS011;5668;52.012;8.724;2022-12-29T01:36:03;0.70;;;0.70;;
11222;SDS011;5668;52.012;8.724;2022-12-29T01:38:32;0.80;;;0.80;;
11222;SDS011;5668;52.012;8.724;2022-12-29T01:41:00;1.27;;;0.77;;
11222;SDS011;5668;52.012;8.724;2022-12-29T01:43:37;0.90;;;0.70;;
11222;SDS011;5668;52.012;8.724;2022-12-29T01:46:07;1.50;;;0.80;;
11222;SDS011;5668;52.012;8.724;2022-12-29T01:48:43;0.93;;;0.80;;
11222;SDS011;5668;52.012;8.724;2022-12-29T01:51:13;0.70;;;0.70;;
11222;SDS011;5668;52.012;8.724;2022-12-29T01:53:47;1.53;;;0.70;;
11222;SDS011;5668;52.012;8.724;2022-12-29T01:56:15;0.77;;;0.70;;
11222;SDS011;5668;52.012;8.724;2022-12-29T01:58:46;0.83;;;0.83;;
11222;SDS011;5668;52.012;8.724;2022-12-29T02:01:18;2.27;;;1.07;;
11222;SDS011;5668;52.012;8.724;2022-12-29T02:03:47;0.60;;;0.60;;
11222;SDS011;5668;52.012;8.724;2022-12-29T02:06:22;0.80;;;0.63;;
11222;SDS011;5668;52.012;8.724;2022-12-29T02:08:53;0.70;;;0.70;;
11222;SDS011;5668;52.012;8.724;2022-12-29T02:11:24;0.70;;;0.70;;
11222;SDS011;5668;52.012;8.724;2022-12-29T02:13:55;0.70;;;0.70;;
11222;SDS011;5668;52.012;8.724;2022-12-29T02:16:30;0.80;;;0.80;;
11222;SDS011;5668;52.012;8.724;2022-12-29T02:19:20;0.70;;;0.70;;
11222;SDS011;5668;52.012;8.724;2022-12-29T02:22:13;1.43;;;0.70;;
11222;SDS011;5668;52.012;8.724;2022-12-29T02:24:54;0.70;;;0.70;;
11222;SDS011;5668;52.012;8.724;2022-12-29T02:27:52;1.13;;;0.60;;
11222;SDS011;5668;52.012;8.724;2022-12-29T02:30:46;0.60;;;0.60;;
11222;SDS011;5668;52.012;8.724;2022-12-29T02:33:37;0.73;;;0.60;;
11222;SDS011;5668;52.012;8.724;2022-12-29T02:36:20;2.00;;;0.77;;
11222;SDS011;5668;52.012;8.724;2022-12-29T02:38:59;0.70;;;0.70;;
11222;SDS011;5668;52.012;8.724;2022-12-29T02:41:38;0.70;;;0.70;;
11222;SDS011;5668;52.012;8.724;2022-12-29T02:44:12;0.67;;;0.67;;
11222;SDS011;5668;52.012;8.724;2022-12-29T02:46:47;0.70;;;0.70;;
11222;SDS011;5668;52.012;8.724;2022-12-29T02:49:22;1.03;;;0.70;;
11222;SDS011;5668;52.012;8.724;2022-12-29T02:51:58;1.93;;;0.63;;
11222;SDS011;5668;52.012;8.724;2022-12-29T02:54:29;0.70;;;0.70;;
11222;SDS011;5668;52.012;8.724;2022-12-29T02:57:11;0.50;;;0.50;;
11222;SDS011;5668;52.012;8.724;2022-12-29T03:00:04;0.40;;;0.40;;
11222;SDS011;5668;52.012;8.724;2022-12-29T03:05:42;0.50;;;0.50;;
11222;SDS011;5668;52.012;8.724;2022-12-29T03:08:58;0.73;;;0.50;;
11222;SDS011;5668;52.012;8.724;2022-12-29T03:11:32;0.50;;;0.50;;
11222;SDS011;5668;52.012;8.724;2022-12-29T03:14:29;0.53;;;0.50;;
11222;SDS011;5668;52.012;8.724;2022-12-29T03:17:24;0.70;;;0.50;;
11222;SDS011;5668;52.012;8.724;2022-12-29T03:19:57;0.57;;;0.57;;
11222;SDS011;5668;52.012;8.724;2022-12-29T03:22:32;0.63;;;0.60;;
11222;SDS011;5668;52.012;8.724;2022-12-29T03:25:40;0.50;;;0.50;;
11222;SDS011;5668;52.012;8.724;2022-12-29T03:28:13;3.70;;;0.60;;
11222;SDS011;5668;52.012;8.724;2022-12-29T03:30:47;0.40;;;0.40;;
11222;SDS011;5668;52.012;8.724;2022-12-29T03:33:18;2.30;;;0.50;;
11222;SDS011;5668;52.012;8.724;2022-12-29T03:35:50;0.50;;;0.50;;
11222;SDS011;5668;52.012;8.724;2022-12-29T03:38:23;0.40;;;0.40;;
11222;SDS011;5668;52.012;8.724;2022-12-29T03:40:56;0.50;;;0.50;;
11222;SDS011;5668;52.012;8.724;2022-12-29T03:43:26;0.60;;;0.60;;
11222;SDS011;5668;52.012;8.724;2022-12-29T03:45:54;0.40;;;0.40;;
11222;SDS011;5668;52.012;8.724;2022-12-29T03:48:21;1.07;;;0.70;;
11222;SDS011;5668;52.012;8.724;2022-12-29T03:50:48;0.50;;;0.50;;
11222;SDS011;5668;52.012;8.724;2022-12-29T03:53:16;0.53;;;0.53;;
11222;SDS011;5668;52.012;8.724;2022-12-29T03:55:45;0.50;;;0.50;;
11222;SDS011;5668;52.012;8.724;2022-12-29T03:58:12;1.83;;;0.90;;
11222;SDS011;5668;52.012;8.724;2022-12-29T04:00:40;0.50;;;0.50;;
11222;SDS011;5668;52.012;8.724;2022-12-29T04:03:07;0.80;;;0.60;;
11222;SDS011;5668;52.012;8.724;2022-12-29T04:05:34;0.90;;;0.50;;
11222;SDS011;5668;52.012;8.724;2022-12-29T04:08:01;0.60;;;0.60;;
11222;SDS011;5668;52.012;8.724;2022-12-29T04:13:52;1.37;;;0.60;;
11222;SDS011;5668;52.012;8.724;2022-12-29T04:16:19;1.53;;;0.67;;
11222;SDS011;5668;52.012;8.724;2022-12-29T04:18:47;0.70;;;0.70;;
11222;SDS011;5668;52.012;8.724;2022-12-29T04:21:14;0.80;;;0.50;;
11222;SDS011;5668;52.012;8.724;2022-12-29T04:23:42;0.60;;;0.50;;
11222;SDS011;5668;52.012;8.724;2022-12-29T04:26:10;0.50;;;0.50;;
11222;SDS011;5668;52.012;8.724;2022-12-29T04:28:37;1.37;;;0.60;;
11222;SDS011;5668;52.012;8.724;2022-12-29T04:31:06;1.03;;;0.60;;
11222;SDS011;5668;52.012;8.724;2022-12-29T04:33:33;0.50;;;0.50;;
11222;SDS011;5668;52.012;8.724;2022-12-29T04:36:01;0.60;;;0.50;;
11222;SDS011;5668;52.012;8.724;2022-12-29T04:38:28;0.50;;;0.50;;
11222;SDS011;5668;52.012;8.724;2022-12-29T04:40:59;0.70;;;0.70;;
11222;SDS011;5668;52.012;8.724;2022-12-29T04:43:29;0.50;;;0.50;;
11222;SDS011;5668;52.012;8.724;2022-12-29T04:45:57;0.80;;;0.60;;
11222;SDS011;5668;52.012;8.724;2022-12-29T04:48:26;2.97;;;0.70;;
11222;SDS011;5668;52.012;8.724;2022-12-29T04:50:54;1.33;;;0.70;;
11222;SDS011;5668;52.012;8.724;2022-12-29T04:53:21;1.23;;;0.60;;
11222;SDS011;5668;52.012;8.724;2022-12-29T04:59:10;0.60;;;0.60;;
11222;SDS011;5668;52.012;8.724;2022-12-29T05:01:38;0.70;;;0.70;;
11222;SDS011;5668;52.012;8.724;2022-12-29T05:04:06;1.67;;;0.70;;
11222;SDS011;5668;52.012;8.724;2022-12-29T05:06:34;1.13;;;0.60;;
11222;SDS011;5668;52.012;8.724;2022-12-29T05:09:01;0.97;;;0.70;;
11222;SDS011;5668;52.012;8.724;2022-12-29T05:11:28;0.70;;;0.60;;
11222;SDS011;5668;52.012;8.724;2022-12-29T05:13:55;0.80;;;0.60;;
11222;SDS011;5668;52.012;8.724;2022-12-29T05:16:22;1.30;;;0.80;;
11222;SDS011;5668;52.012;8.724;2022-12-29T05:18:50;2.10;;;0.60;;
11222;SDS011;5668;52.012;8.724;2022-12-29T05:21:21;1.10;;;0.70;;
11222;SDS011;5668;52.012;8.724;2022-12-29T05:23:48;2.53;;;0.70;;
11222;SDS011;5668;52.012;8.724;2022-12-29T05:26:15;0.80;;;0.60;;
11222;SDS011;5668;52.012;8.724;2022-12-29T05:28:45;0.70;;;0.60;;
11222;SDS011;5668;52.012;8.724;2022-12-29T05:31:12;1.83;;;0.73;;
11222;SDS011;5668;52.012;8.724;2022-12-29T05:33:39;0.50;;;0.50;;
11222;SDS011;5668;52.012;8.724;2022-12-29T05:36:07;1.10;;;0.60;;
11222;SDS011;5668;52.012;8.724;2022-12-29T05:38:39;0.60;;;0.50;;
11222;SDS011;5668;52.012;8.724;2022-12-29T05:41:06;0.87;;;0.60;;
11222;SDS011;5668;52.012;8.724;2022-12-29T05:43:34;1.30;;;0.60;;
11222;SDS011;5668;52.012;8.724;2022-12-29T05:46:05;0.97;;;0.60;;
11222;SDS011;5668;52.012;8.724;2022-12-29T05:48:32;0.60;;;0.60;;
11222;SDS011;5668;52.012;8.724;2022-12-29T05:50:59;2.10;;;0.50;;
11222;SDS011;5668;52.012;8.724;2022-12-29T05:53:27;0.50;;;0.50;;
11222;SDS011;5668;52.012;8.724;2022-12-29T05:55:55;0.93;;;0.63;;
11222;SDS011;5668;52.012;8.724;2022-12-29T05:58:22;0.53;;;0.50;;
11222;SDS011;5668;52.012;8.724;2022-12-29T06:00:50;0.53;;;0.40;;
11222;SDS011;5668;52.012;8.724;2022-12-29T06:03:17;1.13;;;0.60;;
11222;SDS011;5668;52.012;8.724;2022-12-29T06:05:46;0.50;;;0.50;;
11222;SDS011;5668;52.012;8.724;2022-12-29T06:08:13;0.70;;;0.60;;
11222;SDS011;5668;52.012;8.724;2022-12-29T06:10:41;0.80;;;0.50;;
11222;SDS011;5668;52.012;8.724;2022-12-29T06:13:09;0.67;;;0.57;;
11222;SDS011;5668;52.012;8.724;2022-12-29T06:15:36;1.30;;;0.50;;
11222;SDS011;5668;52.012;8.724;2022-12-29T06:18:04;1.47;;;0.63;;
11222;SDS011;5668;52.012;8.724;2022-12-29T06:20:31;0.60;;;0.60;;
11222;SDS011;5668;52.012;8.724;2022-12-29T06:22:58;0.50;;;0.40;;
11222;SDS011;5668;52.012;8.724;2022-12-29T06:25:29;0.67;;;0.47;;
11222;SDS011;5668;52.012;8.724;2022-12-29T06:27:57;1.23;;;0.50;;
11222;SDS011;5668;52.012;8.724;2022-12-29T06:30:28;0.70;;;0.50;;
11222;SDS011;5668;52.012;8.724;2022-12-29T06:32:55;0.50;;;0.50;;
11222;SDS011;5668;52.012;8.724;2022-12-29T06:35:23;1.23;;;0.73;;
11222;SDS011;5668;52.012;8.724;2022-12-29T06:37:50;0.87;;;0.60;;
11222;SDS011;5668;52.012;8.724;2022-12-29T06:40:18;0.97;;;0.63;;
11222;SDS011;5668;52.012;8.724;2022-12-29T06:42:46;0.50;;;0.50;;
11222;SDS011;5668;52.012;8.724;2022-12-29T06:45:14;1.23;;;0.70;;
11222;SDS011;5668;52.012;8.724;2022-12-29T06:47:43;0.80;;;0.60;;
11222;SDS011;5668;52.012;8.724;2022-12-29T06:50:11;0.70;;;0.70;;
11222;SDS011;5668;52.012;8.724;2022-12-29T06:52:43;0.77;;;0.60;;
11222;SDS011;5668;52.012;8.724;2022-12-29T06:55:12;1.17;;;0.80;;
11222;SDS011;5668;52.012;8.724;2022-12-29T06:57:39;2.50;;;0.70;;
11222;SDS011;5668;52.012;8.724;2022-12-29T07:00:07;0.97;;;0.50;;
11222;SDS011;5668;52.012;8.724;2022-12-29T07:02:35;0.63;;;0.63;;
11222;SDS011;5668;52.012;8.724;2022-12-29T07:05:05;0.70;;;0.70;;
11222;SDS011;5668;52.012;8.724;2022-12-29T07:07:34;6.23;;;1.37;;
11222;SDS011;5668;52.012;8.724;2022-12-29T07:10:01;1.43;;;0.80;;
11222;SDS011;5668;52.012;8.724;2022-12-29T07:12:31;0.80;;;0.80;;
11222;SDS011;5668;52.012;8.724;2022-12-29T07:14:58;1.43;;;0.73;;
11222;SDS011;5668;52.012;8.724;2022-12-29T07:17:26;0.80;;;0.80;;
11222;SDS011;5668;52.012;8.724;2022-12-29T07:19:53;1.37;;;0.80;;
11222;SDS011;5668;52.012;8.724;2022-12-29T07:22:23;1.13;;;0.80;;
11222;SDS011;5668;52.012;8.724;2022-12-29T07:24:50;0.63;;;0.60;;
11222;SDS011;5668;52.012;8.724;2022-12-29T07:27:17;1.23;;;0.70;;
11222;SDS011;5668;52.012;8.724;2022-12-29T07:29:46;1.00;;;0.80;;
11222;SDS011;5668;52.012;8.724;2022-12-29T07:32:13;1.10;;;0.70;;
11222;SDS011;5668;52.012;8.724;2022-12-29T07:34:41;0.97;;;0.80;;
11222;SDS011;5668;52.012;8.724;2022-12-29T07:37:10;3.40;;;1.00;;
11222;SDS011;5668;52.012;8.724;2022-12-29T07:39:40;2.73;;;1.00;;
11222;SDS011;5668;52.012;8.724;2022-12-29T07:42:08;1.30;;;0.97;;
11222;SDS011;5668;52.012;8.724;2022-12-29T07:44:35;1.67;;;1.00;;
11222;SDS011;5668;52.012;8.724;2022-12-29T07:47:02;2.27;;;0.90;;
11222;SDS011;5668;52.012;8.724;2022-12-29T07:49:29;3.30;;;1.10;;
11222;SDS011;5668;52.012;8.724;2022-12-29T07:51:57;1.90;;;1.00;;
11222;SDS011;5668;52.012;8.724;2022-12-29T07:54:24;2.63;;;1.10;;
11222;SDS011;5668;52.012;8.724;2022-12-29T07:56:53;2.27;;;1.00;;
11222;SDS011;5668;52.012;8.724;2022-12-29T07:59:20;2.47;;;1.10;;
11222;SDS011;5668;52.012;8.724;2022-12-29T08:01:47;1.80;;;1.07;;
11222;SDS011;5668;52.012;8.724;2022-12-29T08:04:15;2.77;;;1.27;;
11222;SDS011;5668;52.012;8.724;2022-12-29T08:06:42;1.90;;;1.00;;
11222;SDS011;5668;52.012;8.724;2022-12-29T08:09:13;2.50;;;1.20;;
11222;SDS011;5668;52.012;8.724;2022-12-29T08:11:41;1.97;;;0.93;;
11222;SDS011;5668;52.012;8.724;2022-12-29T08:14:10;2.07;;;1.20;;
11222;SDS011;5668;52.012;8.724;2022-12-29T08:16:37;4.87;;;1.33;;
11222;SDS011;5668;52.012;8.724;2022-12-29T08:19:04;1.60;;;0.93;;
11222;SDS011;5668;52.012;8.724;2022-12-29T08:21:32;3.67;;;0.97;;
11222;SDS011;5668;52.012;8.724;2022-12-29T08:23:59;1.40;;;0.90;;
11222;SDS011;5668;52.012;8.724;2022-12-29T08:26:26;1.80;;;1.00;;
11222;SDS011;5668;52.012;8.724;2022-12-29T08:28:53;2.47;;;1.10;;
11222;SDS011;5668;52.012;8.724;2022-12-29T08:31:22;1.40;;;1.27;;
11222;SDS011;5668;52.012;8.724;2022-12-29T08:33:50;2.87;;;1.40;;
11222;SDS011;5668;52.012;8.724;2022-12-29T08:36:17;2.13;;;1.60;;
11222;SDS011;5668;52.012;8.724;2022-12-29T08:38:44;1.80;;;1.33;;
11222;SDS011;5668;52.012;8.724;2022-12-29T08:41:11;1.70;;;1.23;;
11222;SDS011;5668;52.012;8.724;2022-12-29T08:43:39;1.83;;;1.20;;
11222;SDS011;5668;52.012;8.724;2022-12-29T08:46:06;1.40;;;1.07;;
11222;SDS011;5668;52.012;8.724;2022-12-29T08:48:34;1.50;;;1.30;;
11222;SDS011;5668;52.012;8.724;2022-12-29T08:51:02;1.63;;;1.30;;
11222;SDS011;5668;52.012;8.724;2022-12-29T08:53:29;3.00;;;1.43;;
11222;SDS011;5668;52.012;8.724;2022-12-29T08:55:59;1.63;;;1.20;;
11222;SDS011;5668;52.012;8.724;2022-12-29T08:58:27;1.33;;;1.23;;
11222;SDS011;5668;52.012;8.724;2022-12-29T09:00:55;1.10;;;1.00;;
11222;SDS011;5668;52.012;8.724;2022-12-29T09:03:25;2.73;;;1.37;;
11222;SDS011;5668;52.012;8.724;2022-12-29T09:05:54;1.93;;;1.10;;
11222;SDS011;5668;52.012;8.724;2022-12-29T09:08:23;1.67;;;1.07;;
11222;SDS011;5668;52.012;8.724;2022-12-29T09:10:50;2.60;;;1.17;;
11222;SDS011;5668;52.012;8.724;2022-12-29T09:13:18;3.13;;;1.10;;
11222;SDS011;5668;52.012;8.724;2022-12-29T09:15:46;1.40;;;0.97;;
11222;SDS011;5668;52.012;8.724;2022-12-29T09:18:14;2.43;;;1.40;;
11222;SDS011;5668;52.012;8.724;2022-12-29T09:20:41;3.17;;;1.70;;
11222;SDS011;5668;52.012;8.724;2022-12-29T09:23:10;4.53;;;1.57;;
11222;SDS011;5668;52.012;8.724;2022-12-29T09:25:37;3.10;;;1.50;;
11222;SDS011;5668;52.012;8.724;2022-12-29T09:28:04;1.73;;;1.07;;
11222;SDS011;5668;52.012;8.724;2022-12-29T09:30:32;2.03;;;1.30;;
11222;SDS011;5668;52.012;8.724;2022-12-29T09:33:00;2.93;;;1.47;;
11222;SDS011;5668;52.012;8.724;2022-12-29T09:35:27;2.93;;;1.50;;
11222;SDS011;5668;52.012;8.724;2022-12-29T09:37:54;1.80;;;1.40;;
11222;SDS011;5668;52.012;8.724;2022-12-29T09:40:26;3.20;;;1.60;;
11222;SDS011;5668;52.012;8.724;2022-12-29T09:43:01;3.30;;;1.40;;
11222;SDS011;5668;52.012;8.724;2022-12-29T09:45:44;2.80;;;1.30;;
11222;SDS011;5668;52.012;8.724;2022-12-29T09:48:22;3.00;;;1.10;;
11222;SDS011;5668;52.012;8.724;2022-12-29T09:50:55;2.67;;;1.30;;
11222;SDS011;5668;52.012;8.724;2022-12-29T09:53:26;3.43;;;1.43;;
11222;SDS011;5668;52.012;8.724;2022-12-29T09:56:10;2.43;;;1.10;;
11222;SDS011;5668;52.012;8.724;2022-12-29T09:58:42;4.17;;;1.30;;
11222;SDS011;5668;52.012;8.724;2022-12-29T10:01:26;1.10;;;1.00;;
11222;SDS011;5668;52.012;8.724;2022-12-29T10:03:57;4.17;;;1.27;;
11222;SDS011;5668;52.012;8.724;2022-12-29T10:06:30;2.63;;;1.30;;
11222;SDS011;5668;52.012;8.724;2022-12-29T10:09:06;2.20;;;0.93;;
11222;SDS011;5668;52.012;8.724;2022-12-29T10:11:46;3.03;;;1.07;;
11222;SDS011;5668;52.012;8.724;2022-12-29T10:14:33;2.53;;;1.30;;
11222;SDS011;5668;52.012;8.724;2022-12-29T10:17:17;3.90;;;1.20;;
11222;SDS011;5668;52.012;8.724;2022-12-29T10:19:55;3.87;;;1.37;;
11222;SDS011;5668;52.012;8.724;2022-12-29T10:22:45;4.47;;;1.70;;
11222;SDS011;5668;52.012;8.724;2022-12-29T10:25:24;5.47;;;1.50;;
11222;SDS011;5668;52.012;8.724;2022-12-29T10:27:56;4.67;;;1.20;;
11222;SDS011;5668;52.012;8.724;2022-12-29T10:30:29;3.57;;;1.20;;
11222;SDS011;5668;52.012;8.724;2022-12-29T10:33:02;2.97;;;1.50;;
11222;SDS011;5668;52.012;8.724;2022-12-29T10:35:34;4.23;;;1.30;;
11222;SDS011;5668;52.012;8.724;2022-12-29T10:38:09;4.33;;;1.57;;
11222;SDS011;5668;52.012;8.724;2022-12-29T10:40:46;2.80;;;1.20;;
11222;SDS011;5668;52.012;8.724;2022-12-29T10:43:26;2.87;;;1.37;;
11222;SDS011;5668;52.012;8.724;2022-12-29T10:45:56;5.80;;;1.30;;
11222;SDS011;5668;52.012;8.724;2022-12-29T10:48:28;6.60;;;1.40;;
11222;SDS011;5668;52.012;8.724;2022-12-29T10:50:58;4.23;;;1.30;;
11222;SDS011;5668;52.012;8.724;2022-12-29T10:53:30;2.77;;;1.20;;
11222;SDS011;5668;52.012;8.724;2022-12-29T10:56:04;2.83;;;1.07;;
11222;SDS011;5668;52.012;8.724;2022-12-29T10:58:45;4.47;;;1.07;;
11222;SDS011;5668;52.012;8.724;2022-12-29T11:01:15;4.47;;;1.20;;
11222;SDS011;5668;52.012;8.724;2022-12-29T11:03:48;3.67;;;1.17;;
11222;SDS011;5668;52.012;8.724;2022-12-29T11:06:28;4.53;;;1.27;;
11222;SDS011;5668;52.012;8.724;2022-12-29T11:08:56;7.63;;;1.03;;
11222;SDS011;5668;52.012;8.724;2022-12-29T11:11:28;4.63;;;1.13;;
11222;SDS011;5668;52.012;8.724;2022-12-29T11:14:08;5.03;;;1.17;;
11222;SDS011;5668;52.012;8.724;2022-12-29T11:16:39;5.07;;;1.30;;
11222;SDS011;5668;52.012;8.724;2022-12-29T11:19:19;4.80;;;1.17;;
11222;SDS011;5668;52.012;8.724;2022-12-29T11:21:49;3.70;;;1.10;;
11222;SDS011;5668;52.012;8.724;2022-12-29T11:24:22;3.53;;;0.87;;
11222;SDS011;5668;52.012;8.724;2022-12-29T11:26:52;4.00;;;1.30;;
11222;SDS011;5668;52.012;8.724;2022-12-29T11:29:25;2.10;;;0.90;;
11222;SDS011;5668;52.012;8.724;2022-12-29T11:31:54;3.53;;;1.10;;
11222;SDS011;5668;52.012;8.724;2022-12-29T11:34:24;4.43;;;1.27;;
11222;SDS011;5668;52.012;8.724;2022-12-29T11:39:29;2.77;;;1.10;;
11222;SDS011;5668;52.012;8.724;2022-12-29T11:42:01;4.97;;;1.10;;
11222;SDS011;5668;52.012;8.724;2022-12-29T11:44:37;2.87;;;1.10;;
11222;SDS011;5668;52.012;8.724;2022-12-29T11:47:10;2.90;;;1.20;;
11222;SDS011;5668;52.012;8.724;2022-12-29T11:49:49;4.33;;;1.20;;
11222;SDS011;5668;52.012;8.724;2022-12-29T11:52:30;2.03;;;0.83;;
11222;SDS011;5668;52.012;8.724;2022-12-29T11:55:03;3.47;;;1.17;;
11222;SDS011;5668;52.012;8.724;2022-12-29T11:57:46;4.17;;;1.33;;
11222;SDS011;5668;52.012;8.724;2022-12-29T12:00:18;3.50;;;1.00;;
11222;SDS011;5668;52.012;8.724;2022-12-29T12:03:00;2.73;;;1.10;;
11222;SDS011;5668;52.012;8.724;2022-12-29T12:05:33;3.50;;;1.07;;
11222;SDS011;5668;52.012;8.724;2022-12-29T12:08:17;6.83;;;2.03;;
11222;SDS011;5668;52.012;8.724;2022-12-29T12:11:06;2.80;;;1.07;;
11222;SDS011;5668;52.012;8.724;2022-12-29T12:13:42;1.77;;;0.90;;
11222;SDS011;5668;52.012;8.724;2022-12-29T12:16:28;3.77;;;1.20;;
11222;SDS011;5668;52.012;8.724;2022-12-29T12:19:02;3.87;;;1.17;;
11222;SDS011;5668;52.012;8.724;2022-12-29T12:21:41;5.13;;;1.47;;
11222;SDS011;5668;52.012;8.724;2022-12-29T12:24:19;6.17;;;1.63;;
11222;SDS011;5668;52.012;8.724;2022-12-29T12:27:01;3.60;;;1.50;;
11222;SDS011;5668;52.012;8.724;2022-12-29T12:29:36;2.37;;;1.37;;
11222;SDS011;5668;52.012;8.724;2022-12-29T12:32:13;4.07;;;1.20;;
11222;SDS011;5668;52.012;8.724;2022-12-29T12:34:44;3.53;;;1.20;;
11222;SDS011;5668;52.012;8.724;2022-12-29T12:43:20;5.23;;;1.37;;
11222;SDS011;5668;52.012;8.724;2022-12-29T12:46:18;6.17;;;1.57;;
11222;SDS011;5668;52.012;8.724;2022-12-29T12:49:19;3.60;;;1.30;;
11222;SDS011;5668;52.012;8.724;2022-12-29T12:52:03;5.67;;;1.40;;
11222;SDS011;5668;52.012;8.724;2022-12-29T12:54:49;4.20;;;1.10;;
11222;SDS011;5668;52.012;8.724;2022-12-29T12:57:34;3.60;;;1.23;;
11222;SDS011;5668;52.012;8.724;2022-12-29T13:00:22;4.20;;;1.33;;
11222;SDS011;5668;52.012;8.724;2022-12-29T13:02:54;4.33;;;1.40;;
11222;SDS011;5668;52.012;8.724;2022-12-29T13:05:36;2.97;;;1.30;;
11222;SDS011;5668;52.012;8.724;2022-12-29T13:08:37;3.63;;;1.53;;
11222;SDS011;5668;52.012;8.724;2022-12-29T13:11:54;3.40;;;1.10;;
11222;SDS011;5668;52.012;8.724;2022-12-29T13:14:36;4.23;;;1.33;;
11222;SDS011;5668;52.012;8.724;2022-12-29T13:17:13;4.90;;;1.37;;
11222;SDS011;5668;52.012;8.724;2022-12-29T13:19:49;6.67;;;1.40;;
11222;SDS011;5668;52.012;8.724;2022-12-29T13:22:25;3.20;;;1.67;;
11222;SDS011;5668;52.012;8.724;2022-12-29T13:25:04;4.77;;;1.57;;
11222;SDS011;5668;52.012;8.724;2022-12-29T13:27:46;4.70;;;1.57;;
11222;SDS011;5668;52.012;8.724;2022-12-29T13:30:19;2.97;;;1.30;;
11222;SDS011;5668;52.012;8.724;2022-12-29T13:33:00;3.50;;;1.50;;
11222;SDS011;5668;52.012;8.724;2022-12-29T13:35:51;2.27;;;1.27;;
11222;SDS011;5668;52.012;8.724;2022-12-29T13:38:29;4.37;;;1.30;;
11222;SDS011;5668;52.012;8.724;2022-12-29T13:41:01;7.03;;;1.73;;
11222;SDS011;5668;52.012;8.724;2022-12-29T13:43:34;4.10;;;1.63;;
11222;SDS011;5668;52.012;8.724;2022-12-29T13:46:07;5.77;;;1.93;;
11222;SDS011;5668;52.012;8.724;2022-12-29T13:48:38;3.90;;;1.37;;
11222;SDS011;5668;52.012;8.724;2022-12-29T13:51:13;3.07;;;1.73;;
11222;SDS011;5668;52.012;8.724;2022-12-29T13:53:52;5.50;;;1.80;;
11222;SDS011;5668;52.012;8.724;2022-12-29T13:56:45;3.73;;;1.50;;
11222;SDS011;5668;52.012;8.724;2022-12-29T13:59:19;3.47;;;1.67;;
11222;SDS011;5668;52.012;8.724;2022-12-29T14:01:54;5.60;;;1.83;;
11222;SDS011;5668;52.012;8.724;2022-12-29T14:04:26;5.37;;;1.57;;
11222;SDS011;5668;52.012;8.724;2022-12-29T14:06:59;2.93;;;1.50;;
11222;SDS011;5668;52.012;8.724;2022-12-29T14:09:34;3.40;;;1.90;;
11222;SDS011;5668;52.012;8.724;2022-12-29T14:12:31;3.73;;;1.50;;
11222;SDS011;5668;52.012;8.724;2022-12-29T14:15:06;2.93;;;1.40;;
11222;SDS011;5668;52.012;8.724;2022-12-29T14:17:45;5.27;;;1.70;;
11222;SDS011;5668;52.012;8.724;2022-12-29T14:20:31;4.17;;;1.70;;
11222;SDS011;5668;52.012;8.724;2022-12-29T14:23:00;3.17;;;1.60;;
11222;SDS011;5668;52.012;8.724;2022-12-29T14:26:00;3.87;;;1.73;;
11222;SDS011;5668;52.012;8.724;2022-12-29T14:28:44;2.97;;;1.30;;
11222;SDS011;5668;52.012;8.724;2022-12-29T14:34:15;5.00;;;1.67;;
11222;SDS011;5668;52.012;8.724;2022-12-29T14:36:54;3.67;;;1.63;;
11222;SDS011;5668;52.012;8.724;2022-12-29T14:39:32;4.03;;;1.60;;
11222;SDS011;5668;52.012;8.724;2022-12-29T14:42:06;5.10;;;1.97;;
11222;SDS011;5668;52.012;8.724;2022-12-29T14:44:46;5.80;;;2.00;;
11222;SDS011;5668;52.012;8.724;2022-12-29T14:47:16;4.10;;;1.60;;
11222;SDS011;5668;52.012;8.724;2022-12-29T14:49:46;6.23;;;1.90;;
11222;SDS011;5668;52.012;8.724;2022-12-29T14:52:15;3.77;;;1.80;;
11222;SDS011;5668;52.012;8.724;2022-12-29T14:54:52;8.57;;;1.97;;
11222;SDS011;5668;52.012;8.724;2022-12-29T14:57:30;5.20;;;1.80;;
11222;SDS011;5668;52.012;8.724;2022-12-29T15:00:08;4.13;;;1.80;;
11222;SDS011;5668;52.012;8.724;2022-12-29T15:02:47;2.87;;;1.30;;
11222;SDS011;5668;52.012;8.724;2022-12-29T15:05:26;5.47;;;1.70;;
11222;SDS011;5668;52.012;8.724;2022-12-29T15:07:57;5.07;;;1.80;;
11222;SDS011;5668;52.012;8.724;2022-12-29T15:10:33;5.57;;;1.77;;
11222;SDS011;5668;52.012;8.724;2022-12-29T15:13:23;3.77;;;1.77;;
11222;SDS011;5668;52.012;8.724;2022-12-29T15:15:59;4.93;;;1.87;;
11222;SDS011;5668;52.012;8.724;2022-12-29T15:18:28;5.17;;;1.50;;
11222;SDS011;5668;52.012;8.724;2022-12-29T15:21:00;4.03;;;1.50;;
11222;SDS011;5668;52.012;8.724;2022-12-29T15:23:30;5.67;;;1.50;;
11222;SDS011;5668;52.012;8.724;2022-12-29T15:26:01;3.90;;;1.63;;
11222;SDS011;5668;52.012;8.724;2022-12-29T15:28:52;7.37;;;1.70;;
11222;SDS011;5668;52.012;8.724;2022-12-29T15:31:22;6.00;;;1.90;;
11222;SDS011;5668;52.012;8.724;2022-12-29T15:33:51;3.93;;;1.53;;
11222;SDS011;5668;52.012;8.724;2022-12-29T15:36:21;4.63;;;1.60;;
11222;SDS011;5668;52.012;8.724;2022-12-29T15:38:51;4.07;;;1.43;;
11222;SDS011;5668;52.012;8.724;2022-12-29T15:41:25;2.53;;;1.20;;
11222;SDS011;5668;52.012;8.724;2022-12-29T15:44:05;3.93;;;1.50;;
11222;SDS011;5668;52.012;8.724;2022-12-29T15:46:40;4.37;;;1.50;;
11222;SDS011;5668;52.012;8.724;2022-12-29T15:49:14;7.20;;;1.67;;
11222;SDS011;5668;52.012;8.724;2022-12-29T15:52:08;3.57;;;1.13;;
11222;SDS011;5668;52.012;8.724;2022-12-29T15:58:00;2.17;;;1.20;;
11222;SDS011;5668;52.012;8.724;2022-12-29T16:00:31;4.17;;;1.57;;
11222;SDS011;5668;52.012;8.724;2022-12-29T16:03:02;5.00;;;1.83;;